Time;durP1;ratioP1;P1;durP2;ratioP2;P2;SDS_P1;SDS_P2;PMS_P1;PMS_P2;Temp;Humidity;BMP_temperature;BMP_pressure;BME280_temperature;BME280_humidity;BME280_pressure;Samples;Min_cycle;Max_cycle;Signal;HPM_P1;HPM_P2
2023/04/15 00:01:39;;;;;;;;;4.00;2.00;;;;;20.95;54.39;100055.77;110281;1264;22925;-38
2023/04/15 00:04:06;;;;;;;;;1.00;1.00;;;;;20.97;54.50;100055.58;110233;1264;22302;-39
2023/04/15 00:06:34;;;;;;;;;2.00;1.00;;;;;20.96;54.26;100055.66;110211;1264;18489;-38
2023/04/15 00:09:02;;;;;;;;;1.00;1.00;;;;;20.95;54.49;100059.38;110208;1264;20148;-39
2023/04/15 00:11:29;;;;;;;;;2.00;2.00;;;;;20.97;54.37;100056.48;110214;1251;20798;-39
2023/04/15 00:13:57;;;;;;;;;1.00;1.00;;;;;20.96;54.33;100058.96;110195;1251;19570;-41
2023/04/15 00:16:25;;;;;;;;;1.00;1.00;;;;;20.95;54.39;100058.88;110218;1264;18594;-40
2023/04/15 00:18:52;;;;;;;;;1.00;1.00;;;;;20.96;54.22;100054.23;110231;1264;19363;-41
2023/04/15 00:21:20;;;;;;;;;1.00;1.00;;;;;20.97;54.19;100056.75;110225;1264;18460;-39
2023/04/15 00:23:51;;;;;;;;;1.00;1.00;;;;;20.96;54.30;100053.31;110209;1251;20041;-39
2023/04/15 00:26:19;;;;;;;;;1.00;1.00;;;;;20.96;54.28;100049.88;110268;1250;20736;-39
2023/04/15 00:28:47;;;;;;;;;2.00;2.00;;;;;20.95;54.26;100048.86;110254;1264;22659;-39
2023/04/15 00:31:14;;;;;;;;;1.00;1.00;;;;;20.96;54.25;100056.78;110202;1264;19957;-40
2023/04/15 00:33:42;;;;;;;;;1.00;1.00;;;;;20.96;54.28;100052.17;110198;1264;20718;-40
2023/04/15 00:36:10;;;;;;;;;2.00;1.67;;;;;20.97;54.30;100054.77;110187;1250;19540;-38
2023/04/15 00:38:37;;;;;;;;;1.00;1.00;;;;;20.96;54.45;100049.36;110224;1251;19977;-39
2023/04/15 00:41:04;;;;;;;;;1.00;1.00;;;;;20.97;54.25;100053.22;110202;1264;21299;-39
2023/04/15 00:43:32;;;;;;;;;1.00;1.00;;;;;20.97;54.37;100049.63;110217;1264;19550;-38
2023/04/15 00:45:59;;;;;;;;;2.00;2.00;;;;;20.95;54.17;100047.05;110214;1264;19944;-38
2023/04/15 00:48:27;;;;;;;;;1.00;1.00;;;;;20.95;54.19;100047.64;110210;1251;20681;-39
2023/04/15 00:50:54;;;;;;;;;1.00;1.00;;;;;20.95;54.16;100048.31;110192;1251;20738;-39
2023/04/15 00:53:22;;;;;;;;;1.00;1.00;;;;;20.96;54.30;100054.73;110200;1264;18569;-38
2023/04/15 00:55:50;;;;;;;;;1.00;1.00;;;;;20.95;54.17;100053.77;110195;1264;20421;-41
2023/04/15 00:58:17;;;;;;;;;1.00;1.00;;;;;20.96;54.18;100049.33;110204;1264;22348;-39
2023/04/15 01:00:45;;;;;;;;;1.50;1.50;;;;;20.95;54.32;100049.32;110205;1251;20004;-40
2023/04/15 01:03:12;;;;;;;;;1.00;1.00;;;;;20.95;54.19;100049.95;110201;1249;20688;-40
2023/04/15 01:05:40;;;;;;;;;1.00;1.00;;;;;20.94;54.13;100045.63;110218;1264;19597;-41
2023/04/15 01:08:08;;;;;;;;;1.00;1.00;;;;;20.95;54.22;100045.80;110233;1264;19976;-40
2023/04/15 01:10:36;;;;;;;;;1.00;1.00;;;;;20.95;54.07;100041.85;110205;1264;19332;-39
2023/04/15 01:13:04;;;;;;;;;2.00;1.00;;;;;20.95;54.31;100049.03;110179;1264;21937;-39
2023/04/15 01:15:31;;;;;;;;;1.00;1.00;;;;;20.95;54.07;100043.83;110192;1264;18520;-39
2023/04/15 01:17:59;;;;;;;;;1.00;1.00;;;;;20.95;53.98;100045.05;110194;1264;19450;-39
2023/04/15 01:20:26;;;;;;;;;2.00;2.00;;;;;20.95;54.26;100044.21;110184;1251;22805;-38
2023/04/15 01:22:53;;;;;;;;;1.00;1.00;;;;;20.94;54.16;100045.41;110220;1264;18739;-39
2023/04/15 01:25:21;;;;;;;;;1.00;1.00;;;;;20.93;54.16;100041.89;110216;1251;20837;-38
2023/04/15 01:27:48;;;;;;;;;2.00;1.00;;;;;20.93;54.18;100041.52;110202;1264;18406;-39
2023/04/15 01:30:16;;;;;;;;;2.00;2.00;;;;;20.93;53.92;100042.98;110196;1251;20021;-39
2023/04/15 01:32:43;;;;;;;;;2.00;2.00;;;;;20.93;53.98;100044.61;110180;1264;22139;-38
2023/04/15 01:35:11;;;;;;;;;1.00;1.00;;;;;20.93;53.96;100040.86;110148;1251;19669;-39
2023/04/15 01:37:38;;;;;;;;;1.00;1.00;;;;;20.94;54.23;100047.98;110160;1251;20414;-39
2023/04/15 01:40:06;;;;;;;;;2.00;2.00;;;;;20.94;54.01;100049.30;110152;1264;22193;-39
2023/04/15 01:42:33;;;;;;;;;1.00;1.00;;;;;20.94;54.04;100044.70;110200;1260;18619;-39
2023/04/15 01:45:01;;;;;;;;;2.67;2.00;;;;;20.94;53.88;100047.66;110134;1251;20300;-38
2023/04/15 01:47:28;;;;;;;;;1.00;1.00;;;;;20.93;54.07;100045.19;110123;1264;19338;-38
2023/04/15 01:49:56;;;;;;;;;1.00;1.00;;;;;20.93;53.90;100044.82;110123;1251;19689;-38
2023/04/15 01:52:23;;;;;;;;;2.00;1.00;;;;;20.93;54.08;100046.98;110171;1264;19949;-39
2023/04/15 01:54:50;;;;;;;;;1.00;1.00;;;;;20.93;53.91;100047.00;110214;1251;19984;-39
2023/04/15 01:57:18;;;;;;;;;4.00;2.00;;;;;20.94;54.05;100050.48;110213;1251;19653;-39
2023/04/15 01:59:45;;;;;;;;;3.00;2.00;;;;;20.93;53.98;100046.95;110233;1257;20030;-41
2023/04/15 02:02:13;;;;;;;;;4.00;2.00;;;;;20.93;53.84;100048.45;110211;1249;20591;-41
2023/04/15 02:04:40;;;;;;;;;1.00;1.00;;;;;20.94;53.88;100050.55;110190;1264;22650;-40
2023/04/15 02:07:08;;;;;;;;;2.00;2.00;;;;;20.93;53.98;100048.29;110204;1264;18601;-40
2023/04/15 02:09:35;;;;;;;;;1.00;1.00;;;;;20.93;53.98;100047.71;110219;1251;21095;-39
2023/04/15 02:12:02;;;;;;;;;1.00;1.00;;;;;20.94;53.95;100047.21;110219;1264;19619;-39
2023/04/15 02:14:30;;;;;;;;;1.00;1.00;;;;;20.94;53.83;100050.90;110210;1251;19960;-40
2023/04/15 02:17:05;;;;;;;;;1.00;1.00;;;;;20.94;53.82;100049.44;110200;1264;19352;-40
2023/04/15 02:19:33;;;;;;;;;1.00;1.00;;;;;20.93;53.82;100046.65;110209;1257;23505;-39
2023/04/15 02:22:00;;;;;;;;;1.00;1.00;;;;;20.94;53.80;100050.91;110199;1264;19954;-38
2023/04/15 02:24:28;;;;;;;;;1.00;1.00;;;;;20.94;53.91;100052.16;110241;1249;19324;-40
2023/04/15 02:26:56;;;;;;;;;1.00;1.00;;;;;20.94;54.02;100048.69;110215;1264;19525;-40
2023/04/15 02:29:23;;;;;;;;;1.00;1.00;;;;;20.93;53.93;100047.15;110219;1264;19826;-41
2023/04/15 02:31:51;;;;;;;;;1.50;1.50;;;;;20.93;53.99;100051.31;110217;1264;22054;-40
2023/04/15 02:34:18;;;;;;;;;1.00;1.00;;;;;20.93;53.90;100049.89;110206;1264;18482;-40
2023/04/15 02:36:48;;;;;;;;;2.00;1.00;;;;;20.94;53.90;100051.41;110216;1264;20145;-40
2023/04/15 02:39:17;;;;;;;;;1.00;1.00;;;;;20.94;53.82;100051.02;110209;1264;19334;-38
2023/04/15 02:41:46;;;;;;;;;1.00;1.00;;;;;20.94;53.96;100053.11;110242;1249;20778;-38
2023/04/15 02:44:14;;;;;;;;;2.00;2.00;;;;;20.93;53.97;100051.17;110195;1264;22624;-38
2023/04/15 02:46:42;;;;;;;;;2.00;2.00;;;;;20.94;53.90;100051.91;110181;1264;19773;-39
2023/04/15 02:49:09;;;;;;;;;1.00;1.00;;;;;20.94;53.68;100052.46;110215;1264;22593;-39
2023/04/15 02:51:37;;;;;;;;;1.50;1.50;;;;;20.95;53.91;100051.88;110195;1264;22728;-40
2023/04/15 02:54:05;;;;;;;;;2.00;2.00;;;;;20.94;53.96;100049.64;110220;1264;19350;-39
2023/04/15 02:56:32;;;;;;;;;1.00;1.00;;;;;20.93;53.88;100048.11;110177;1251;19621;-40
2023/04/15 02:59:00;;;;;;;;;1.00;1.00;;;;;20.93;53.83;100048.83;110204;1264;18598;-40
2023/04/15 03:01:27;;;;;;;;;1.00;1.00;;;;;20.92;53.86;100046.39;110167;1264;22895;-39
2023/04/15 03:03:54;;;;;;;;;1.00;1.00;;;;;20.92;53.83;100049.24;110197;1265;18361;-41
2023/04/15 03:06:23;;;;;;;;;1.00;1.00;;;;;20.91;53.69;100051.70;110230;1251;20070;-39
2023/04/15 03:08:51;;;;;;;;;2.00;1.00;;;;;20.91;53.87;100045.63;110273;1264;20576;-39
2023/04/15 03:11:18;;;;;;;;;1.00;1.00;;;;;20.91;53.82;100049.02;110294;1250;19690;-39
2023/04/15 03:13:46;;;;;;;;;1.00;1.00;;;;;20.91;53.73;100047.94;110296;1264;22248;-38
2023/04/15 03:16:13;;;;;;;;;1.00;1.00;;;;;20.91;53.66;100052.45;110298;1251;20657;-38
2023/04/15 03:18:41;;;;;;;;;1.00;1.00;;;;;20.92;53.68;100054.39;110252;1251;20971;-39
2023/04/15 03:21:08;;;;;;;;;2.00;2.00;;;;;20.92;53.61;100051.33;110197;1251;19915;-38
2023/04/15 03:23:35;;;;;;;;;2.00;1.00;;;;;20.93;53.64;100057.17;110179;1264;21345;-38
2023/04/15 03:26:03;;;;;;;;;1.00;1.00;;;;;20.92;53.51;100058.88;110188;1251;19612;-40
2023/04/15 03:28:31;;;;;;;;;1.00;1.00;;;;;20.93;53.72;100059.55;110224;1265;20977;-38
2023/04/15 03:30:58;;;;;;;;;1.00;1.00;;;;;20.92;53.59;100063.79;110204;1250;22329;-39
2023/04/15 03:33:26;;;;;;;;;1.50;1.00;;;;;20.92;53.68;100062.70;110224;1264;18452;-39
2023/04/15 03:35:53;;;;;;;;;2.00;2.00;;;;;20.92;53.69;100062.39;110186;1264;19965;-39
2023/04/15 03:38:21;;;;;;;;;2.00;2.00;;;;;20.90;53.72;100065.15;110182;1250;21824;-39
2023/04/15 03:40:48;;;;;;;;;1.00;1.00;;;;;20.91;53.67;100062.80;110195;1251;19596;-39
2023/04/15 03:43:16;;;;;;;;;1.00;1.00;;;;;20.92;53.52;100063.95;110181;1251;19994;-39
2023/04/15 03:45:43;;;;;;;;;2.00;2.00;;;;;20.93;53.73;100064.63;110171;1250;22640;-40
2023/04/15 03:48:11;;;;;;;;;1.00;1.00;;;;;20.92;53.42;100065.45;110196;1250;19633;-39
2023/04/15 03:50:38;;;;;;;;;2.00;2.00;;;;;20.90;53.73;100065.48;110213;1264;21444;-40
2023/04/15 03:53:05;;;;;;;;;2.00;1.00;;;;;20.92;53.68;100066.41;110149;1264;20024;-39
2023/04/15 03:55:33;;;;;;;;;2.00;2.00;;;;;20.92;53.50;100068.73;110136;1250;19602;-39
2023/04/15 03:58:01;;;;;;;;;1.00;1.00;;;;;20.92;53.53;100067.09;110243;1251;21609;-40
2023/04/15 04:00:28;;;;;;;;;1.00;1.00;;;;;20.92;53.66;100073.64;110196;1264;22828;-39
2023/04/15 04:02:56;;;;;;;;;1.00;1.00;;;;;20.91;53.72;100071.90;110201;1264;19574;-39
2023/04/15 04:05:23;;;;;;;;;4.00;4.00;;;;;20.92;53.61;100070.52;110202;1250;19884;-40
2023/04/15 04:07:50;;;;;;;;;2.00;2.00;;;;;20.92;53.66;100073.50;110199;1264;20474;-37
2023/04/15 04:10:18;;;;;;;;;2.00;2.00;;;;;20.91;53.38;100069.02;110219;1264;19551;-39
2023/04/15 04:12:46;;;;;;;;;1.00;1.00;;;;;20.92;53.48;100070.43;110186;1264;22936;-38
2023/04/15 04:15:13;;;;;;;;;1.00;1.00;;;;;20.91;53.55;100071.40;110206;1264;19512;-39
2023/04/15 04:17:41;;;;;;;;;1.00;1.00;;;;;20.91;53.52;100071.56;110218;1264;20631;-40
2023/04/15 04:20:08;;;;;;;;;1.50;1.50;;;;;20.91;53.58;100070.31;110188;1264;18571;-38
2023/04/15 04:22:36;;;;;;;;;2.00;2.00;;;;;20.92;53.54;100075.14;110223;1264;20691;-38
2023/04/15 04:25:03;;;;;;;;;1.50;1.50;;;;;20.91;53.55;100073.16;110199;1264;22654;-38
2023/04/15 04:27:30;;;;;;;;;1.50;1.50;;;;;20.91;53.31;100076.14;110195;1251;20977;-39
2023/04/15 04:29:58;;;;;;;;;;;;;;;20.90;53.48;100074.91;110222;1264;20625;-39
2023/04/15 04:32:25;;;;;;;;;2.00;2.00;;;;;20.90;53.59;100071.48;110288;1249;20990;-39
2023/04/15 04:34:53;;;;;;;;;1.00;1.00;;;;;20.91;53.54;100076.67;110242;1264;19821;-39
2023/04/15 04:37:20;;;;;;;;;2.00;2.00;;;;;20.91;53.47;100077.81;110236;1251;20929;-39
2023/04/15 04:39:47;;;;;;;;;1.00;1.00;;;;;20.91;53.43;100082.67;110202;1251;19678;-39
2023/04/15 04:42:15;;;;;;;;;1.00;1.00;;;;;20.90;53.46;100083.38;110217;1249;21925;-40
2023/04/15 04:44:43;;;;;;;;;2.00;1.00;;;;;20.90;53.42;100084.17;110190;1259;22277;-41
2023/04/15 04:47:10;;;;;;;;;2.00;2.00;;;;;20.90;53.37;100082.92;110053;1264;21260;-39
2023/04/15 04:49:38;;;;;;;;;1.00;1.00;;;;;20.91;53.33;100086.48;110222;1264;20195;-39
2023/04/15 04:52:05;;;;;;;;;2.00;2.00;;;;;20.90;53.51;100089.16;110173;1251;20854;-42
2023/04/15 04:54:33;;;;;;;;;2.00;1.33;;;;;20.92;53.29;100094.13;110208;1251;19619;-39
2023/04/15 04:57:00;;;;;;;;;1.00;1.00;;;;;20.92;53.50;100093.90;110210;1264;18520;-39
2023/04/15 04:59:28;;;;;;;;;1.00;1.00;;;;;20.92;53.64;100093.23;110196;1251;21066;-39
2023/04/15 05:01:55;;;;;;;;;2.00;2.00;;;;;20.93;53.87;100093.16;110203;1251;19664;-39
2023/04/15 05:04:23;;;;;;;;;1.00;1.00;;;;;20.94;53.58;100096.83;110204;1264;18775;-39
2023/04/15 05:06:50;;;;;;;;;1.00;1.00;;;;;20.96;53.59;100095.77;110223;1260;20808;-40
2023/04/15 05:09:18;;;;;;;;;1.50;1.50;;;;;20.98;53.60;100098.84;110247;1264;18451;-39
2023/04/15 05:11:45;;;;;;;;;1.00;1.00;;;;;21.01;53.88;100101.92;110208;1251;20023;-39
2023/04/15 05:14:13;;;;;;;;;1.00;1.00;;;;;21.02;53.79;100106.98;110169;1251;20766;-40
2023/04/15 05:16:40;;;;;;;;;1.00;1.00;;;;;21.00;53.89;100102.94;110304;1264;19558;-40
2023/04/15 05:19:07;;;;;;;;;1.00;1.00;;;;;20.98;54.14;100103.33;110317;1264;18622;-40
2023/04/15 05:21:35;;;;;;;;;1.00;1.00;;;;;20.96;54.22;100101.76;110284;1264;19342;-40
2023/04/15 05:24:02;;;;;;;;;1.50;1.50;;;;;20.95;54.42;100106.31;110297;1264;19604;-39
2023/04/15 05:26:30;;;;;;;;;1.50;1.50;;;;;20.95;54.34;100104.64;110220;1264;20286;-40
2023/04/15 05:28:57;;;;;;;;;2.00;2.00;;;;;20.95;54.28;100103.27;110240;1250;19375;-37
2023/04/15 05:31:25;;;;;;;;;1.50;1.50;;;;;20.95;54.24;100105.06;110299;1251;19696;-37
2023/04/15 05:33:52;;;;;;;;;2.00;2.00;;;;;20.94;54.20;100109.84;110249;1251;23048;-38
2023/04/15 05:36:20;;;;;;;;;2.00;1.00;;;;;20.95;54.20;100110.26;110283;1251;19385;-37
2023/04/15 05:38:47;;;;;;;;;1.00;1.00;;;;;20.96;54.10;100104.60;110274;1264;19525;-38
2023/04/15 05:41:15;;;;;;;;;2.67;2.67;;;;;20.95;54.10;100110.71;110249;1264;18577;-37
2023/04/15 05:43:43;;;;;;;;;2.00;2.00;;;;;20.95;54.31;100110.34;110194;1264;19322;-38
2023/04/15 05:46:10;;;;;;;;;2.00;2.00;;;;;20.95;54.42;100108.29;110206;1264;19520;-41
2023/04/15 05:48:38;;;;;;;;;1.00;1.00;;;;;20.96;54.31;100111.86;110198;1251;20122;-38
2023/04/15 05:51:05;;;;;;;;;2.00;2.00;;;;;20.95;54.17;100111.10;110191;1264;19701;-38
2023/04/15 05:53:33;;;;;;;;;1.00;1.00;;;;;20.95;54.33;100114.11;110214;1264;23524;-39
2023/04/15 05:56:00;;;;;;;;;1.50;1.50;;;;;20.95;54.14;100111.60;110240;1251;20022;-40
2023/04/15 05:58:28;;;;;;;;;1.00;1.00;;;;;20.95;54.34;100114.36;110189;1250;23125;-38
2023/04/15 06:00:55;;;;;;;;;;;;;;;20.93;54.47;100114.69;110195;1250;19601;-38
2023/04/15 06:03:22;;;;;;;;;2.00;2.00;;;;;20.94;54.27;100112.97;110212;1264;19864;-39
2023/04/15 06:05:50;;;;;;;;;1.00;1.00;;;;;20.96;54.19;100117.47;110116;1264;20761;-39
2023/04/15 06:08:17;;;;;;;;;2.00;2.00;;;;;20.98;54.21;100118.66;110219;1264;18178;-39
2023/04/15 06:10:45;;;;;;;;;2.00;2.00;;;;;20.99;54.39;100115.76;110253;1264;18497;-39
2023/04/15 06:13:12;;;;;;;;;1.00;1.00;;;;;21.01;54.50;100116.77;110147;1251;22162;-39
2023/04/15 06:15:40;;;;;;;;;2.00;2.00;;;;;21.04;54.61;100117.98;110200;1250;19593;-38
2023/04/15 06:18:07;;;;;;;;;1.50;1.50;;;;;21.06;54.74;100120.30;110195;1264;18768;-38
2023/04/15 06:20:35;;;;;;;;;4.00;2.00;;;;;21.05;55.12;100120.42;110252;1250;20866;-38
2023/04/15 06:23:02;;;;;;;;;1.00;1.00;;;;;21.08;55.04;100121.20;110220;1250;23975;-40
2023/04/15 06:25:30;;;;;;;;;2.00;2.00;;;;;21.09;55.32;100124.81;110208;1264;19953;-38
2023/04/15 06:27:57;;;;;;;;;2.50;1.50;;;;;21.10;55.49;100126.89;110199;1251;22091;-39
2023/04/15 06:30:25;;;;;;;;;4.00;3.00;;;;;21.11;55.52;100127.59;110188;1264;19522;-39
2023/04/15 06:32:52;;;;;;;;;4.00;4.00;;;;;21.12;55.67;100128.41;110224;1250;20019;-39
2023/04/15 06:35:20;;;;;;;;;3.00;3.00;;;;;21.09;55.90;100128.33;110197;1264;19336;-39
2023/04/15 06:37:47;;;;;;;;;2.00;2.00;;;;;21.10;56.25;100128.80;110197;1264;18968;-39
2023/04/15 06:40:15;;;;;;;;;4.00;2.00;;;;;21.07;56.65;100128.87;110217;1264;18610;-40
2023/04/15 06:42:42;;;;;;;;;1.50;1.50;;;;;21.07;56.86;100135.36;110172;1264;20675;-39
2023/04/15 06:45:10;;;;;;;;;4.00;4.00;;;;;21.08;56.95;100132.95;110219;1250;19596;-39
2023/04/15 06:47:37;;;;;;;;;3.00;3.00;;;;;21.08;56.83;100138.44;110214;1264;19996;-40
2023/04/15 06:50:05;;;;;;;;;2.00;2.00;;;;;21.09;57.26;100141.20;110294;1264;20736;-40
2023/04/15 06:52:32;;;;;;;;;2.00;2.00;;;;;21.09;57.36;100138.85;110195;1264;20159;-40
2023/04/15 06:55:00;;;;;;;;;2.00;2.00;;;;;21.08;56.99;100144.77;110205;1264;20421;-39
2023/04/15 06:57:28;;;;;;;;;2.00;2.00;;;;;21.07;57.02;100146.31;110257;1250;21451;-39
2023/04/15 06:59:56;;;;;;;;;4.00;4.00;;;;;21.06;56.80;100152.29;110197;1251;19649;-40
2023/04/15 07:02:23;;;;;;;;;4.00;4.00;;;;;21.05;56.87;100147.34;110206;1257;21599;-38
2023/04/15 07:04:51;;;;;;;;;1.50;1.50;;;;;21.04;56.82;100152.20;110225;1266;19708;-39
2023/04/15 07:07:18;;;;;;;;;4.00;4.00;;;;;21.03;56.67;100154.77;110213;1264;19582;-40
2023/04/15 07:09:46;;;;;;;;;2.00;2.00;;;;;21.05;56.42;100155.51;110211;1264;22869;-39
2023/04/15 07:12:13;;;;;;;;;2.00;2.00;;;;;21.05;56.50;100158.95;110210;1257;19341;-39
2023/04/15 07:14:41;;;;;;;;;2.00;2.00;;;;;21.04;56.56;100152.05;110200;1264;19804;-39
2023/04/15 07:17:08;;;;;;;;;2.00;2.00;;;;;21.05;56.37;100161.12;110225;1264;18926;-39
2023/04/15 07:19:36;;;;;;;;;4.00;2.00;;;;;21.06;56.08;100164.16;110180;1264;19320;-40
2023/04/15 07:22:03;;;;;;;;;2.00;2.00;;;;;21.06;55.97;100165.33;110193;1251;19582;-39
2023/04/15 07:24:31;;;;;;;;;4.00;2.00;;;;;21.06;56.32;100167.05;110244;1251;19925;-39
2023/04/15 07:26:58;;;;;;;;;4.00;4.00;;;;;21.08;56.34;100166.92;110198;1264;22245;-40
2023/04/15 07:29:26;;;;;;;;;7.00;7.00;;;;;21.08;56.23;100167.82;110214;1264;19531;-40
2023/04/15 07:31:55;;;;;;;;;12.00;10.50;;;;;21.02;55.78;100169.55;110199;1251;18780;-41
2023/04/15 07:34:23;;;;;;;;;10.00;10.00;;;;;20.95;55.36;100168.92;110199;1264;22322;-40
2023/04/15 07:36:50;;;;;;;;;11.00;10.00;;;;;20.94;55.34;100169.88;110210;1264;18590;-41
2023/04/15 07:39:18;;;;;;;;;17.00;12.00;;;;;20.92;54.92;100166.49;110177;1264;20009;-40
2023/04/15 07:41:46;;;;;;;;;13.00;13.00;;;;;20.85;54.79;100173.91;110182;1257;19430;-41
2023/04/15 07:44:13;;;;;;;;;11.00;10.00;;;;;20.78;54.40;100173.77;110210;1264;21781;-41
2023/04/15 07:46:41;;;;;;;;;14.00;14.00;;;;;20.77;54.27;100173.20;110218;1264;18689;-40
2023/04/15 07:49:08;;;;;;;;;15.00;14.00;;;;;20.77;53.96;100177.05;110159;1264;22864;-40
2023/04/15 07:51:36;;;;;;;;;14.00;14.00;;;;;20.77;53.96;100179.16;110129;1264;20074;-38
2023/04/15 07:54:03;;;;;;;;;14.00;14.00;;;;;20.74;53.69;100175.59;110262;1264;22770;-39
2023/04/15 07:56:31;;;;;;;;;13.50;13.50;;;;;20.81;53.59;100172.87;110275;1251;19329;-39
2023/04/15 07:59:00;;;;;;;;;11.00;11.00;;;;;20.90;53.49;100175.53;110150;1264;22251;-40
2023/04/15 08:01:28;;;;;;;;;13.00;11.00;;;;;20.94;53.49;100175.42;110186;1251;22255;-41
2023/04/15 08:03:55;;;;;;;;;14.00;14.00;;;;;20.97;53.54;100178.34;110186;1251;19541;-39
2023/04/15 08:06:23;;;;;;;;;10.50;9.00;;;;;20.99;53.28;100182.30;110190;1250;22239;-39
2023/04/15 08:08:50;;;;;;;;;11.00;10.00;;;;;20.99;53.78;100182.09;110160;1264;18865;-39
2023/04/15 08:11:18;;;;;;;;;10.00;10.00;;;;;20.99;53.85;100178.98;110175;1260;19245;-40
2023/04/15 08:13:45;;;;;;;;;10.00;10.00;;;;;20.99;54.02;100182.95;110161;1264;22908;-42
2023/04/15 08:16:13;;;;;;;;;8.00;7.00;;;;;21.01;54.13;100181.28;110195;1264;19983;-40
2023/04/15 08:18:40;;;;;;;;;8.00;8.00;;;;;21.02;53.96;100175.92;110185;1264;20831;-38
2023/04/15 08:21:09;;;;;;;;;7.00;7.00;;;;;21.01;54.18;100181.58;110163;1249;23595;-39
2023/04/15 08:23:36;;;;;;;;;8.00;8.00;;;;;21.00;53.97;100184.63;110221;1250;22642;-39
2023/04/15 08:26:04;;;;;;;;;7.00;7.00;;;;;21.00;53.90;100187.43;110216;1264;21789;-39
2023/04/15 08:28:31;;;;;;;;;7.00;7.00;;;;;21.00;53.86;100186.00;109940;1251;354854;-39
2023/04/15 08:30:59;;;;;;;;;7.50;7.00;;;;;20.99;53.76;100187.57;110207;1251;20272;-39
2023/04/15 08:33:26;;;;;;;;;7.00;7.00;;;;;20.98;54.07;100192.19;110139;1264;19563;-39
2023/04/15 08:35:54;;;;;;;;;5.00;5.00;;;;;20.98;53.99;100196.33;110130;1264;22857;-39
2023/04/15 08:38:21;;;;;;;;;5.00;5.00;;;;;20.98;53.89;100199.84;110253;1264;18509;-40
2023/04/15 08:40:49;;;;;;;;;7.00;7.00;;;;;21.01;53.92;100197.83;110221;1251;21026;-38
2023/04/15 08:43:16;;;;;;;;;5.00;5.00;;;;;21.04;54.09;100200.43;110191;1250;18435;-38
2023/04/15 08:45:43;;;;;;;;;5.00;5.00;;;;;21.06;54.11;100204.75;110187;1264;22860;-39
2023/04/15 08:48:11;;;;;;;;;5.00;5.00;;;;;21.10;54.16;100205.60;110197;1264;20691;-38
2023/04/15 08:50:38;;;;;;;;;7.00;5.00;;;;;21.11;54.24;100205.45;110192;1264;18490;-39
2023/04/15 08:53:06;;;;;;;;;7.00;7.00;;;;;21.12;54.43;100202.63;110238;1264;18814;-39
2023/04/15 08:55:34;;;;;;;;;5.00;5.00;;;;;21.14;54.37;100206.95;110245;1264;22162;-40
2023/04/15 08:58:02;;;;;;;;;7.00;5.00;;;;;21.14;54.56;100206.16;110249;1251;22812;-39
2023/04/15 09:00:29;;;;;;;;;11.00;8.00;;;;;21.12;54.62;100208.23;110229;1264;20909;-41
2023/04/15 09:02:57;;;;;;;;;5.00;5.00;;;;;21.10;54.39;100205.57;110175;1264;22910;-39
2023/04/15 09:05:24;;;;;;;;;7.00;7.00;;;;;21.07;54.57;100211.58;110227;1264;18770;-39
2023/04/15 09:07:52;;;;;;;;;5.00;5.00;;;;;21.06;54.40;100208.24;110247;1264;19977;-40
2023/04/15 09:10:19;;;;;;;;;4.00;4.00;;;;;21.04;54.37;100209.94;110219;1264;20704;-39
2023/04/15 09:12:46;;;;;;;;;8.00;5.00;;;;;21.04;54.23;100207.01;110247;1264;18436;-39
2023/04/15 09:15:15;;;;;;;;;5.00;5.00;;;;;21.02;54.45;100208.58;110232;1251;18959;-40
2023/04/15 09:17:42;;;;;;;;;6.00;5.00;;;;;21.02;54.24;100210.71;110269;1265;20727;-39
2023/04/15 09:20:10;;;;;;;;;5.00;5.00;;;;;21.03;54.26;100211.89;110264;1264;21710;-39
2023/04/15 09:22:37;;;;;;;;;8.00;7.00;;;;;21.01;54.14;100209.96;110249;1251;19986;-39
2023/04/15 09:25:05;;;;;;;;;4.00;4.00;;;;;21.01;54.13;100205.80;110272;1249;21457;-40
2023/04/15 09:27:32;;;;;;;;;5.00;5.00;;;;;21.00;53.93;100206.60;110265;1250;19788;-39
2023/04/15 09:30:00;;;;;;;;;4.00;4.00;;;;;21.00;53.85;100206.98;110263;1264;18785;-40
2023/04/15 09:32:27;;;;;;;;;5.00;5.00;;;;;21.00;53.86;100210.79;110260;1264;19519;-39
2023/04/15 09:34:54;;;;;;;;;5.00;5.00;;;;;20.99;53.94;100203.30;110255;1264;18523;-39
2023/04/15 09:37:22;;;;;;;;;5.00;5.00;;;;;20.99;53.87;100201.46;110249;1250;18640;-39
2023/04/15 09:39:49;;;;;;;;;4.00;4.00;;;;;20.99;53.63;100200.75;110266;1264;19527;-40
2023/04/15 09:42:22;;;;;;;;;7.00;6.00;;;;;20.99;53.68;100204.23;110240;1264;18404;-40
2023/04/15 09:44:51;;;;;;;;;5.00;5.00;;;;;20.99;53.58;100205.02;110288;1250;21130;-39
2023/04/15 09:47:18;;;;;;;;;5.00;5.00;;;;;20.99;53.50;100204.64;110272;1264;20961;-39
2023/04/15 09:49:46;;;;;;;;;7.00;5.00;;;;;20.99;53.45;100205.89;110258;1264;19625;-39
2023/04/15 09:52:13;;;;;;;;;7.00;7.00;;;;;20.98;53.42;100208.85;110288;1264;18513;-41
2023/04/15 09:54:41;;;;;;;;;4.00;4.00;;;;;20.98;53.32;100209.06;110288;1251;20793;-40
2023/04/15 09:57:08;;;;;;;;;7.00;5.00;;;;;20.98;53.31;100209.24;110296;1264;18679;-40
2023/04/15 09:59:36;;;;;;;;;7.00;5.00;;;;;20.98;53.21;100214.33;110266;1264;18739;-40
2023/04/15 10:02:03;;;;;;;;;7.00;5.00;;;;;20.98;53.25;100217.58;110212;1249;22212;-40
2023/04/15 10:04:31;;;;;;;;;4.00;4.00;;;;;20.98;53.38;100216.32;110246;1264;21217;-40
2023/04/15 10:06:58;;;;;;;;;4.00;4.00;;;;;20.99;53.08;100218.05;110229;1264;22667;-40
2023/04/15 10:09:26;;;;;;;;;5.00;5.00;;;;;20.98;53.06;100217.20;110238;1264;20716;-39
2023/04/15 10:11:53;;;;;;;;;5.00;5.00;;;;;20.97;53.21;100221.17;110268;1251;19921;-40
2023/04/15 10:14:21;;;;;;;;;4.00;4.00;;;;;20.98;52.97;100219.46;110270;1264;18618;-39
2023/04/15 10:16:49;;;;;;;;;5.00;5.00;;;;;20.97;53.09;100216.06;110250;1250;20764;-40
2023/04/15 10:19:16;;;;;;;;;5.00;5.00;;;;;20.97;52.90;100214.85;110268;1250;19511;-40
2023/04/15 10:21:44;;;;;;;;;8.00;7.00;;;;;20.98;52.90;100219.08;110265;1251;18605;-40
2023/04/15 10:24:11;;;;;;;;;4.00;4.00;;;;;20.98;52.92;100218.33;110222;1251;20737;-40
2023/04/15 10:26:39;;;;;;;;;4.50;4.50;;;;;20.97;53.04;100217.14;110265;1251;19609;-41
2023/04/15 10:29:06;;;;;;;;;5.00;5.00;;;;;20.98;52.77;100219.09;110236;1264;19967;-40
2023/04/15 10:31:34;;;;;;;;;5.00;4.50;;;;;20.97;52.90;100216.60;110223;1264;20851;-40
2023/04/15 10:34:05;;;;;;;;;7.33;6.33;;;;;20.97;52.74;100216.05;110240;1264;21902;-40
2023/04/15 10:36:32;;;;;;;;;4.50;4.00;;;;;20.97;52.72;100219.33;110230;1251;21768;-39
2023/04/15 10:39:00;;;;;;;;;7.00;7.00;;;;;20.98;52.70;100221.81;110239;1264;21684;-40
2023/04/15 10:41:29;;;;;;;;;8.00;8.00;;;;;20.96;52.38;100223.13;110235;1251;22677;-40
2023/04/15 10:43:57;;;;;;;;;11.00;10.00;;;;;20.95;52.27;100222.88;110219;1250;18596;-39
2023/04/15 10:46:24;;;;;;;;;10.00;9.50;;;;;20.95;51.91;100229.63;110218;1264;19538;-39
2023/04/15 10:48:52;;;;;;;;;13.00;13.00;;;;;20.86;51.90;100227.70;110260;1264;20117;-40
2023/04/15 10:51:20;;;;;;;;;14.00;14.00;;;;;20.87;51.78;100223.91;110264;1264;18730;-40
2023/04/15 10:53:47;;;;;;;;;14.00;14.00;;;;;20.89;51.81;100225.15;110164;1249;22689;-40
2023/04/15 10:56:15;;;;;;;;;18.33;17.33;;;;;20.87;51.56;100222.45;110179;1251;20010;-40
2023/04/15 10:58:42;;;;;;;;;14.00;14.00;;;;;20.89;52.00;100222.89;110209;1264;20118;-40
2023/04/15 11:01:10;;;;;;;;;17.00;16.00;;;;;20.94;52.03;100227.80;110256;1264;19343;-41
2023/04/15 11:03:38;;;;;;;;;23.00;21.00;;;;;20.94;51.95;100227.94;110249;1264;18960;-40
2023/04/15 11:06:06;;;;;;;;;34.00;30.00;;;;;20.95;51.70;100231.33;110229;1264;22573;-40
2023/04/15 11:08:33;;;;;;;;;52.50;46.50;;;;;20.97;52.31;100227.59;110220;1259;19344;-42
2023/04/15 11:11:01;;;;;;;;;71.00;59.00;;;;;21.05;52.69;100227.81;110218;1264;22796;-40
2023/04/15 11:13:30;;;;;;;;;51.00;46.00;;;;;21.10;53.19;100225.43;110247;1257;19166;-40
2023/04/15 11:15:59;;;;;;;;;66.00;54.50;;;;;21.01;52.83;100227.80;110232;1251;22211;-40
2023/04/15 11:18:27;;;;;;;;;44.00;41.50;;;;;20.90;52.47;100227.66;110209;1250;21646;-39